Time;durP1;ratioP1;P1;durP2;ratioP2;P2;SDS_P1;SDS_P2;PMS_P1;PMS_P2;Temp;Humidity;BMP_temperature;BMP_pressure;BME280_temperature;BME280_humidity;BME280_pressure;Samples;Min_cycle;Max_cycle;Signal;HPM_P1;HPM_P2
2024/04/15 00:01:24;;;;;;;5.87;1.93;;;8.40;99.70;;;;;;5424008;26;20223;-73
2024/04/15 00:04:12;;;;;;;6.73;2.23;;;8.50;99.90;;;;;;5449996;26;20284;-74
2024/04/15 00:07:00;;;;;;;7.37;2.07;;;8.40;99.90;;;;;;5449134;26;20277;-74
2024/04/15 00:09:48;;;;;;;8.40;2.17;;;8.40;99.90;;;;;;5448935;26;20219;-74
2024/04/15 00:12:35;;;;;;;4.70;1.87;;;8.40;99.90;;;;;;5449801;26;20215;-73
2024/04/15 00:15:23;;;;;;;7.27;2.13;;;8.30;99.90;;;;;;5449012;26;20773;-74
2024/04/15 00:18:10;;;;;;;6.00;2.40;;;8.30;99.90;;;;;;5423683;26;20227;-74
2024/04/15 00:21:02;;;;;;;6.03;2.20;;;8.30;99.90;;;;;;5449431;26;20566;-74
2024/04/15 00:23:50;;;;;;;9.07;2.60;;;8.30;99.90;;;;;;5449069;26;20227;-74
2024/04/15 00:26:38;;;;;;;9.27;2.60;;;8.30;99.90;;;;;;5447314;26;20379;-74
2024/04/15 00:29:26;;;;;;;4.47;1.80;;;8.30;99.90;;;;;;5397920;26;20315;-74
2024/04/15 00:32:13;;;;;;;6.80;2.40;;;8.20;99.90;;;;;;5423328;26;20259;-74
2024/04/15 00:35:01;;;;;;;6.87;2.27;;;8.20;99.90;;;;;;5423748;26;20229;-73
2024/04/15 00:37:49;;;;;;;6.60;2.40;;;8.20;99.90;;;;;;5426886;26;20257;-73
2024/04/15 00:40:37;;;;;;;5.53;2.30;;;8.10;99.90;;;;;;5426079;26;20219;-74
2024/04/15 00:43:25;;;;;;;5.83;2.10;;;8.10;99.90;;;;;;5452015;26;20311;-74
2024/04/15 00:46:12;;;;;;;5.23;2.40;;;8.10;99.90;;;;;;5451939;26;20254;-73
2024/04/15 00:49:01;;;;;;;5.80;2.30;;;8.00;99.90;;;;;;5451668;26;20231;-73
2024/04/15 00:51:49;;;;;;;7.23;2.53;;;8.00;99.90;;;;;;5453079;26;20262;-73
2024/04/15 00:54:39;;;;;;;6.97;2.20;;;8.00;99.90;;;;;;5453878;26;20265;-73
2024/04/15 00:57:27;;;;;;;7.27;2.47;;;7.90;99.90;;;;;;5426622;26;20253;-72
2024/04/15 01:00:15;;;;;;;11.33;2.70;;;7.80;99.90;;;;;;5451447;26;20658;-72
2024/04/15 01:03:05;;;;;;;8.63;2.30;;;7.80;99.90;;;;;;5452691;26;20300;-72
2024/04/15 01:05:53;;;;;;;5.43;2.40;;;7.80;99.90;;;;;;5453657;26;20327;-72
2024/04/15 01:08:41;;;;;;;6.67;2.17;;;7.80;99.90;;;;;;5452749;26;20702;-72
2024/04/15 01:11:43;;;;;;;8.00;2.17;;;7.80;99.90;;;;;;5452603;26;20215;-72
2024/04/15 01:14:31;;;;;;;7.70;2.40;;;7.70;99.90;;;;;;5396465;26;20231;-72
2024/04/15 01:17:18;;;;;;;5.37;2.20;;;7.70;99.90;;;;;;5380018;26;20325;-73
2024/04/15 01:20:06;;;;;;;6.47;2.70;;;7.70;99.90;;;;;;5403511;26;20293;-73
2024/04/15 01:23:05;;;;;;;5.67;2.10;;;7.70;99.90;;;;;;5378559;26;20220;-73
2024/04/15 01:25:53;;;;;;;8.10;2.50;;;7.60;99.90;;;;;;5381244;26;20628;-74
2024/04/15 01:28:41;;;;;;;6.80;2.30;;;7.50;99.90;;;;;;5379609;26;20221;-73
2024/04/15 01:31:28;;;;;;;6.13;2.40;;;7.50;99.90;;;;;;5379664;26;20299;-75
2024/04/15 01:34:16;;;;;;;8.30;2.50;;;7.50;99.90;;;;;;5381787;26;20337;-73
2024/04/15 01:37:04;;;;;;;8.43;2.57;;;7.60;99.90;;;;;;5403064;26;20220;-74
2024/04/15 01:39:52;;;;;;;6.00;2.47;;;7.60;99.90;;;;;;5380130;26;20229;-73
2024/04/15 01:42:39;;;;;;;7.63;2.60;;;7.60;99.90;;;;;;5379596;26;20327;-74
2024/04/15 01:45:27;;;;;;;7.67;2.43;;;7.60;99.90;;;;;;5380760;26;20300;-73
2024/04/15 01:48:14;;;;;;;4.50;2.23;;;7.70;99.90;;;;;;5380261;26;20220;-74
2024/04/15 01:51:02;;;;;;;6.53;2.33;;;7.70;99.90;;;;;;5378715;26;20287;-74
2024/04/15 01:53:49;;;;;;;9.13;2.60;;;7.60;99.90;;;;;;5380884;26;20738;-73
2024/04/15 01:56:37;;;;;;;6.13;2.47;;;7.60;99.90;;;;;;5379909;26;20781;-72
2024/04/15 01:59:25;;;;;;;6.00;2.50;;;7.50;99.90;;;;;;5380013;26;20834;-73
2024/04/15 02:02:12;;;;;;;6.20;2.40;;;7.50;99.90;;;;;;5380420;26;20745;-73
2024/04/15 02:05:02;;;;;;;6.03;2.27;;;7.50;99.90;;;;;;5379948;26;20273;-74
2024/04/15 02:07:49;;;;;;;5.90;2.40;;;7.50;99.90;;;;;;5379279;26;20706;-74
2024/04/15 02:10:37;;;;;;;7.63;2.67;;;7.40;99.90;;;;;;5378723;26;20263;-74
2024/04/15 02:13:25;;;;;;;6.17;2.37;;;7.50;99.90;;;;;;5382919;26;20217;-74
2024/04/15 02:16:12;;;;;;;5.23;2.40;;;7.40;99.90;;;;;;5452554;26;20226;-74
2024/04/15 02:19:00;;;;;;;7.27;2.53;;;7.30;99.90;;;;;;5451692;26;20262;-74
2024/04/15 02:21:47;;;;;;;4.23;2.30;;;7.30;99.90;;;;;;5450629;26;20230;-73
2024/04/15 02:24:35;;;;;;;5.90;2.10;;;7.30;99.90;;;;;;5452424;26;20214;-74
2024/04/15 02:27:23;;;;;;;4.07;2.40;;;7.30;99.90;;;;;;5451538;26;20261;-72
2024/04/15 02:30:11;;;;;;;8.73;2.50;;;7.30;99.90;;;;;;5450532;26;20696;-73
2024/04/15 02:32:58;;;;;;;6.80;2.63;;;7.30;99.90;;;;;;5448853;26;20301;-74
2024/04/15 02:35:46;;;;;;;6.50;2.83;;;7.30;99.90;;;;;;5449890;26;20261;-73
2024/04/15 02:38:34;;;;;;;5.20;2.20;;;7.30;99.90;;;;;;5425435;26;20283;-73
2024/04/15 02:41:21;;;;;;;7.73;2.50;;;7.20;99.90;;;;;;5449951;26;20231;-74
2024/04/15 02:44:09;;;;;;;5.23;2.40;;;7.30;99.90;;;;;;5450506;26;20282;-73
2024/04/15 02:46:56;;;;;;;8.87;2.50;;;7.30;99.90;;;;;;5450247;26;20264;-74
2024/04/15 02:49:44;;;;;;;7.87;2.47;;;7.30;99.90;;;;;;5450713;26;20233;-74
2024/04/15 02:52:31;;;;;;;6.03;2.20;;;7.30;99.90;;;;;;5425274;26;20216;-74
2024/04/15 02:55:19;;;;;;;10.67;2.57;;;7.30;99.90;;;;;;5452108;26;20214;-73
2024/04/15 02:58:10;;;;;;;6.60;2.30;;;7.20;99.90;;;;;;5425285;26;20302;-74
2024/04/15 03:00:58;;;;;;;4.77;2.10;;;7.20;99.90;;;;;;5450529;26;20324;-74
2024/04/15 03:03:46;;;;;;;8.33;2.50;;;7.10;99.90;;;;;;5449920;26;20218;-74
2024/04/15 03:06:34;;;;;;;6.90;2.20;;;7.20;99.90;;;;;;5450177;26;20313;-74
2024/04/15 03:09:25;;;;;;;10.13;3.47;;;7.10;99.90;;;;;;5448656;26;20323;-74
2024/04/15 03:12:13;;;;;;;6.90;2.27;;;6.90;99.90;;;;;;5449753;26;20285;-74
2024/04/15 03:15:01;;;;;;;5.97;2.23;;;6.90;99.90;;;;;;5448313;26;20318;-73
2024/04/15 03:17:50;;;;;;;5.80;2.37;;;7.00;99.90;;;;;;5424817;26;20854;-73
2024/04/15 03:20:38;;;;;;;8.60;2.27;;;6.90;99.90;;;;;;5425082;26;20757;-72
2024/04/15 03:23:25;;;;;;;4.30;2.23;;;6.90;99.90;;;;;;5423542;26;20291;-73
2024/04/15 03:26:13;;;;;;;5.87;2.37;;;6.80;99.90;;;;;;5423904;26;20219;-73
2024/04/15 03:29:01;;;;;;;7.67;2.20;;;6.90;99.90;;;;;;5449647;26;20226;-73
2024/04/15 03:31:48;;;;;;;6.23;2.20;;;7.00;99.90;;;;;;5450434;26;20226;-73
2024/04/15 03:34:35;;;;;;;6.37;2.30;;;7.10;99.90;;;;;;5449347;26;20231;-73
2024/04/15 03:37:23;;;;;;;6.13;2.30;;;7.00;99.90;;;;;;5424093;26;20219;-73
2024/04/15 03:40:11;;;;;;;10.40;2.73;;;6.90;99.90;;;;;;5449465;26;20215;-74
2024/04/15 03:42:58;;;;;;;5.47;2.40;;;6.90;99.90;;;;;;5450281;26;20214;-74
2024/04/15 03:45:46;;;;;;;7.40;2.50;;;6.90;99.90;;;;;;5448952;26;20261;-73
2024/04/15 03:48:34;;;;;;;7.90;2.20;;;6.90;99.90;;;;;;5449210;26;20298;-72
2024/04/15 03:51:21;;;;;;;5.73;2.10;;;7.00;99.90;;;;;;5272566;27;20302;-73
2024/04/15 03:54:09;;;;;;;5.97;2.10;;;7.00;99.90;;;;;;5273438;27;20235;-73
2024/04/15 03:56:57;;;;;;;6.43;2.57;;;7.10;99.90;;;;;;5273233;27;20260;-73
2024/04/15 03:59:44;;;;;;;6.80;2.47;;;7.10;99.90;;;;;;5273405;27;20271;-73
2024/04/15 04:02:32;;;;;;;7.13;2.53;;;7.10;99.90;;;;;;5273426;27;20235;-72
2024/04/15 04:05:20;;;;;;;4.93;2.30;;;7.10;99.90;;;;;;5273167;27;20629;-72
2024/04/15 04:08:07;;;;;;;7.57;2.17;;;7.30;99.90;;;;;;5278628;26;20329;-72
2024/04/15 04:10:55;;;;;;;5.83;2.43;;;7.20;99.90;;;;;;5448196;26;20258;-73
2024/04/15 04:13:43;;;;;;;5.80;2.30;;;7.30;99.90;;;;;;5449737;26;20268;-73
2024/04/15 04:16:31;;;;;;;10.17;2.37;;;7.40;99.90;;;;;;5448848;26;20259;-72
2024/04/15 04:19:22;;;;;;;9.10;2.63;;;7.50;99.90;;;;;;5448368;26;20268;-72
2024/04/15 04:22:10;;;;;;;9.83;2.60;;;7.70;99.90;;;;;;5450737;26;20743;-73
2024/04/15 04:24:57;;;;;;;9.77;2.40;;;7.50;99.90;;;;;;5423338;26;20257;-72
2024/04/15 04:27:46;;;;;;;7.23;2.40;;;7.40;99.90;;;;;;5448902;26;20219;-72
2024/04/15 04:30:34;;;;;;;8.93;2.60;;;7.40;99.90;;;;;;5449570;26;20223;-72
2024/04/15 04:33:22;;;;;;;7.13;2.53;;;7.40;99.90;;;;;;5448561;26;20215;-72
2024/04/15 04:36:10;;;;;;;6.73;2.70;;;7.50;99.90;;;;;;5448124;26;20223;-73
2024/04/15 04:38:57;;;;;;;9.60;3.13;;;7.50;99.90;;;;;;5472453;26;20695;-73
2024/04/15 04:41:44;;;;;;;8.40;3.10;;;7.60;99.90;;;;;;5448514;26;20609;-74
2024/04/15 04:44:32;;;;;;;7.20;2.80;;;7.60;99.90;;;;;;5450358;26;20211;-74
2024/04/15 04:47:20;;;;;;;7.00;2.60;;;7.70;99.90;;;;;;5423248;26;20215;-74
2024/04/15 04:50:08;;;;;;;7.93;2.70;;;7.80;99.90;;;;;;5449462;26;20285;-74
2024/04/15 04:52:56;;;;;;;9.50;2.93;;;7.80;99.90;;;;;;5449067;26;20249;-74
2024/04/15 04:55:44;;;;;;;7.97;2.77;;;7.90;99.90;;;;;;5423245;26;20573;-74
2024/04/15 04:58:31;;;;;;;6.50;2.70;;;7.90;99.90;;;;;;5447647;26;20226;-74
2024/04/15 05:01:19;;;;;;;7.60;2.47;;;7.90;99.90;;;;;;5449302;26;20296;-74
2024/04/15 05:04:08;;;;;;;8.13;2.60;;;7.80;99.90;;;;;;5447960;26;20224;-75
2024/04/15 05:06:56;;;;;;;7.93;2.57;;;8.00;99.90;;;;;;5448110;26;20216;-75
2024/04/15 05:09:44;;;;;;;8.63;2.67;;;8.10;99.90;;;;;;5447971;26;20280;-75
2024/04/15 05:12:31;;;;;;;14.03;2.60;;;8.00;99.90;;;;;;5447509;26;20218;-75
2024/04/15 05:15:19;;;;;;;9.93;2.40;;;7.90;99.90;;;;;;5447577;26;20800;-75
2024/04/15 05:18:07;;;;;;;6.43;2.53;;;8.10;99.90;;;;;;5446821;26;20714;-77
2024/04/15 05:20:54;;;;;;;7.70;2.33;;;8.00;99.90;;;;;;5422360;26;20223;-75
2024/04/15 05:23:42;;;;;;;8.97;2.50;;;8.20;99.90;;;;;;5451875;26;20230;-75
2024/04/15 05:26:30;;;;;;;8.43;2.70;;;8.10;99.90;;;;;;5452020;26;20216;-75
2024/04/15 05:29:18;;;;;;;8.73;2.73;;;8.00;99.90;;;;;;5425213;26;20215;-75
2024/04/15 05:32:06;;;;;;;7.93;2.70;;;8.10;99.90;;;;;;5425904;26;20219;-75
2024/04/15 05:34:53;;;;;;;9.03;2.70;;;8.10;99.90;;;;;;5450990;26;20331;-76
2024/04/15 05:37:41;;;;;;;7.27;3.07;;;8.30;99.90;;;;;;5426017;26;20215;-75
2024/04/15 05:40:28;;;;;;;10.30;2.90;;;8.40;99.90;;;;;;5424740;26;20283;-75
2024/04/15 05:43:16;;;;;;;8.93;2.73;;;8.20;99.90;;;;;;5451335;26;20292;-75
2024/04/15 05:46:04;;;;;;;6.20;2.73;;;8.30;99.90;;;;;;5452365;26;20517;-75
2024/04/15 05:48:53;;;;;;;10.60;2.80;;;8.40;99.90;;;;;;5425960;26;20296;-75
2024/04/15 05:51:40;;;;;;;9.97;2.77;;;8.40;99.90;;;;;;5450687;26;20222;-75
2024/04/15 05:54:27;;;;;;;12.57;2.93;;;8.30;99.90;;;;;;5450877;26;20219;-75
2024/04/15 05:57:15;;;;;;;9.80;2.53;;;8.30;99.90;;;;;;5450719;26;20220;-75
2024/04/15 06:00:04;;;;;;;11.93;3.07;;;8.20;99.90;;;;;;5453076;26;20211;-75
2024/04/15 06:02:52;;;;;;;9.73;2.90;;;8.20;99.90;;;;;;5452011;26;20324;-75
2024/04/15 06:05:39;;;;;;;8.23;2.90;;;8.10;99.90;;;;;;5425840;26;20239;-75
2024/04/15 06:08:27;;;;;;;5.67;2.57;;;8.20;99.90;;;;;;5451251;26;20330;-75
2024/04/15 06:11:14;;;;;;;10.20;3.40;;;8.20;99.90;;;;;;5450705;26;20265;-74
2024/04/15 06:14:02;;;;;;;7.57;3.10;;;8.10;99.90;;;;;;5450210;26;20331;-74
2024/04/15 06:16:51;;;;;;;10.00;3.10;;;8.10;99.90;;;;;;5451549;26;20212;-74
2024/04/15 06:24:30;;;;;;;10.43;3.00;;;7.90;99.90;;;;;;5453225;26;20273;-73
2024/04/15 06:27:42;;;;;;;9.60;2.93;;;7.80;99.90;;;;;;5453041;26;20261;-74
2024/04/15 06:30:29;;;;;;;12.70;3.10;;;7.70;99.90;;;;;;5450164;26;20211;-74
2024/04/15 06:33:17;;;;;;;10.97;2.97;;;7.60;99.90;;;;;;5424677;26;20220;-74
2024/04/15 06:36:05;;;;;;;13.50;3.27;;;7.50;99.90;;;;;;5424425;26;20277;-74
2024/04/15 06:38:53;;;;;;;13.20;3.20;;;7.50;99.90;;;;;;5450327;26;20914;-74
2024/04/15 06:41:40;;;;;;;8.77;3.07;;;7.50;99.90;;;;;;5450099;26;20215;-74
2024/04/15 06:44:31;;;;;;;7.87;2.60;;;7.50;99.90;;;;;;5451204;26;20214;-75
2024/04/15 06:47:18;;;;;;;9.90;3.30;;;7.40;99.90;;;;;;5451196;26;20219;-75
2024/04/15 06:50:07;;;;;;;6.93;2.57;;;7.40;99.90;;;;;;5450282;26;20237;-75
2024/04/15 06:52:54;;;;;;;9.83;2.67;;;7.40;99.90;;;;;;5448920;26;20259;-75
2024/04/15 06:55:42;;;;;;;7.67;3.00;;;7.40;99.90;;;;;;5424975;26;20227;-75
2024/04/15 06:58:30;;;;;;;10.87;2.90;;;7.30;99.90;;;;;;5424834;26;20223;-75
2024/04/15 07:01:17;;;;;;;7.07;2.70;;;7.20;99.90;;;;;;5449778;26;20294;-74
2024/04/15 07:04:06;;;;;;;9.70;2.67;;;7.30;99.90;;;;;;5424958;26;20319;-74
2024/04/15 07:06:54;;;;;;;7.00;2.63;;;7.30;99.90;;;;;;5424804;26;20215;-74
2024/04/15 07:09:41;;;;;;;10.63;2.97;;;7.40;99.90;;;;;;5449531;26;20225;-74
2024/04/15 07:12:29;;;;;;;7.07;3.00;;;7.30;99.90;;;;;;5424696;26;20326;-74
2024/04/15 07:15:16;;;;;;;10.50;2.77;;;7.40;99.90;;;;;;5424390;26;20715;-74
2024/04/15 07:18:04;;;;;;;11.33;3.13;;;7.40;99.90;;;;;;5450017;26;20564;-74
2024/04/15 07:20:54;;;;;;;11.17;2.83;;;7.30;99.90;;;;;;5450698;26;20230;-75
2024/04/15 07:23:45;;;;;;;5.97;2.50;;;7.30;99.90;;;;;;5449941;26;20215;-74
2024/04/15 07:26:33;;;;;;;8.77;2.80;;;7.40;99.90;;;;;;5451875;26;20700;-75
2024/04/15 07:29:20;;;;;;;7.83;3.00;;;7.40;99.90;;;;;;5449401;26;20227;-75
2024/04/15 07:32:08;;;;;;;10.07;2.87;;;7.50;99.90;;;;;;5452020;26;20218;-75
2024/04/15 07:34:55;;;;;;;9.57;2.60;;;7.60;99.90;;;;;;5424255;26;20749;-75
2024/04/15 07:37:45;;;;;;;7.03;2.33;;;7.70;99.90;;;;;;5450194;26;20270;-75
2024/04/15 07:40:32;;;;;;;6.60;2.37;;;7.60;99.90;;;;;;5449112;26;20262;-74
2024/04/15 07:43:20;;;;;;;6.27;1.93;;;7.70;99.90;;;;;;5449464;26;20260;-74
2024/04/15 07:46:07;;;;;;;7.47;1.90;;;7.90;99.90;;;;;;5448803;26;20315;-74
2024/04/15 07:48:55;;;;;;;11.10;2.50;;;7.80;99.90;;;;;;5450383;26;20799;-74
2024/04/15 07:51:42;;;;;;;7.83;2.30;;;7.80;99.90;;;;;;5452608;26;20651;-74
2024/04/15 07:54:30;;;;;;;9.90;2.23;;;7.90;99.90;;;;;;5449314;26;20802;-74
2024/04/15 07:57:18;;;;;;;6.13;2.03;;;8.00;99.90;;;;;;5448988;26;20223;-74
2024/04/15 08:00:06;;;;;;;8.23;2.20;;;8.10;99.90;;;;;;5422734;26;20262;-74
2024/04/15 08:02:54;;;;;;;6.03;2.30;;;8.20;99.90;;;;;;5473076;26;20706;-74
2024/04/15 08:05:41;;;;;;;6.40;2.07;;;8.20;99.90;;;;;;5449835;26;20711;-74
2024/04/15 08:08:29;;;;;;;6.80;2.07;;;8.40;99.90;;;;;;5422246;26;20312;-74
2024/04/15 08:11:17;;;;;;;6.10;1.90;;;8.20;99.90;;;;;;5449909;26;20539;-74
2024/04/15 08:14:05;;;;;;;6.33;2.00;;;8.30;99.90;;;;;;5448515;26;20234;-74
2024/04/15 08:16:53;;;;;;;6.43;2.53;;;8.30;99.90;;;;;;5422765;26;20683;-74
2024/04/15 08:19:40;;;;;;;7.60;2.00;;;8.30;99.90;;;;;;5449017;26;20227;-74
2024/04/15 08:22:28;;;;;;;6.50;2.10;;;8.40;99.90;;;;;;5423974;26;20226;-74
2024/04/15 08:25:17;;;;;;;4.93;1.60;;;8.50;99.90;;;;;;5448928;26;20214;-74
2024/04/15 08:28:04;;;;;;;7.43;2.20;;;8.40;99.90;;;;;;5449271;26;20218;-74
2024/04/15 08:30:52;;;;;;;3.67;1.60;;;8.50;99.90;;;;;;5423668;26;20218;-74
2024/04/15 08:33:39;;;;;;;8.37;2.17;;;8.50;99.90;;;;;;5448391;26;20218;-74
2024/04/15 08:36:27;;;;;;;5.97;1.90;;;8.80;99.90;;;;;;5449638;26;20761;-74
2024/04/15 08:39:14;;;;;;;7.50;1.97;;;8.90;99.90;;;;;;5448212;26;20211;-75
2024/04/15 08:42:29;;;;;;;8.40;2.07;;;8.80;99.90;;;;;;5448145;26;20306;-75
2024/04/15 08:45:26;;;;;;;8.90;2.33;;;8.90;99.90;;;;;;5448452;26;20687;-75
2024/04/15 08:48:16;;;;;;;6.50;2.23;;;8.80;99.90;;;;;;5472201;26;20320;-75
2024/04/15 08:51:04;;;;;;;5.43;2.10;;;8.80;99.90;;;;;;5449276;26;20227;-75
2024/04/15 08:53:51;;;;;;;8.00;2.00;;;8.80;99.90;;;;;;5448997;26;20687;-75
2024/04/15 08:56:43;;;;;;;4.53;2.00;;;8.90;99.90;;;;;;5451237;26;20219;-75
2024/04/15 08:59:32;;;;;;;6.20;2.00;;;9.10;99.90;;;;;;5453532;26;20319;-75
2024/04/15 09:02:19;;;;;;;6.67;2.00;;;9.20;99.90;;;;;;5451865;26;20220;-75
2024/04/15 09:05:09;;;;;;;5.10;1.97;;;9.40;99.90;;;;;;5451231;26;20771;-75
2024/04/15 09:07:56;;;;;;;5.20;2.17;;;9.60;99.90;;;;;;5451643;26;20212;-75
2024/04/15 09:10:44;;;;;;;6.20;1.63;;;9.90;99.90;;;;;;5452794;26;20597;-75
2024/04/15 09:13:31;;;;;;;7.20;2.00;;;10.10;99.90;;;;;;5426212;26;20211;-75
2024/04/15 09:16:19;;;;;;;4.60;1.40;;;10.60;99.90;;;;;;5451789;26;20215;-75
2024/04/15 09:19:08;;;;;;;3.63;1.27;;;10.60;99.90;;;;;;5452383;26;20228;-76
2024/04/15 09:22:02;;;;;;;4.10;1.30;;;10.60;99.90;;;;;;5451137;26;20262;-75
2024/04/15 09:24:50;;;;;;;3.73;1.53;;;10.60;99.90;;;;;;5428428;26;20211;-76
2024/04/15 09:27:38;;;;;;;8.13;1.50;;;10.50;99.90;;;;;;5426259;26;20322;-75
2024/04/15 09:30:29;;;;;;;4.77;1.20;;;10.80;99.90;;;;;;5450833;26;20695;-75
2024/04/15 09:33:21;;;;;;;5.40;1.40;;;11.20;99.90;;;;;;5426089;26;20590;-75
2024/04/15 09:36:09;;;;;;;4.27;1.37;;;11.70;99.90;;;;;;5452284;26;20714;-76
2024/04/15 09:38:58;;;;;;;5.50;1.37;;;11.80;99.90;;;;;;5451915;26;20216;-76
2024/04/15 09:41:48;;;;;;;3.47;1.40;;;11.70;99.90;;;;;;5474573;26;20211;-75
2024/04/15 09:44:40;;;;;;;5.33;1.40;;;11.40;99.90;;;;;;5425389;26;20715;-75
2024/04/15 09:47:30;;;;;;;4.07;1.30;;;11.20;99.90;;;;;;5426124;26;20711;-76
2024/04/15 09:50:25;;;;;;;6.87;1.50;;;11.20;99.90;;;;;;5424729;26;20699;-75
2024/04/15 09:53:23;;;;;;;6.23;1.40;;;11.40;99.90;;;;;;5474708;26;20216;-76
2024/04/15 09:56:16;;;;;;;6.13;1.37;;;11.50;99.90;;;;;;5450664;26;20738;-76
2024/04/15 09:59:07;;;;;;;4.97;1.50;;;11.80;99.90;;;;;;5451573;26;20215;-76
2024/04/15 10:01:57;;;;;;;4.97;1.27;;;11.90;99.90;;;;;;5425689;26;20270;-76
2024/04/15 10:04:47;;;;;;;3.50;1.20;;;11.90;99.90;;;;;;5450378;26;20223;-75
2024/04/15 10:07:36;;;;;;;6.47;1.27;;;12.40;99.90;;;;;;5425084;26;20220;-76
2024/04/15 10:10:28;;;;;;;3.83;1.43;;;12.80;99.90;;;;;;5450731;26;20211;-75
2024/04/15 10:13:17;;;;;;;3.97;1.27;;;13.30;99.90;;;;;;5425444;26;20227;-77
2024/04/15 10:16:05;;;;;;;4.27;1.30;;;13.10;99.90;;;;;;5450742;26;20215;-76
2024/04/15 10:19:02;;;;;;;4.20;1.40;;;13.20;99.90;;;;;;5451370;26;20324;-76
2024/04/15 10:21:50;;;;;;;5.57;1.27;;;13.20;99.90;;;;;;5423094;26;20716;-76
2024/04/15 10:24:39;;;;;;;6.13;1.30;;;13.50;99.90;;;;;;5424946;26;20261;-76
2024/04/15 10:27:26;;;;;;;6.00;1.57;;;13.70;99.90;;;;;;5451895;26;20873;-76
2024/04/15 10:30:18;;;;;;;7.57;1.93;;;14.00;99.90;;;;;;5450534;26;20225;-76
2024/04/15 10:33:08;;;;;;;4.00;1.20;;;14.60;99.90;;;;;;5476193;26;20257;-76
2024/04/15 10:35:56;;;;;;;7.03;1.40;;;15.00;99.90;;;;;;5451314;26;20239;-76
2024/04/15 10:38:50;;;;;;;4.47;1.50;;;14.40;99.90;;;;;;5424921;26;20211;-75
2024/04/15 10:41:39;;;;;;;5.53;1.53;;;14.00;99.90;;;;;;5450235;26;20262;-75
2024/04/15 10:44:27;;;;;;;6.60;1.50;;;13.90;99.90;;;;;;5451459;26;20222;-76
2024/04/15 10:47:14;;;;;;;4.80;1.43;;;14.00;99.90;;;;;;5450350;26;20215;-76
2024/04/15 10:50:04;;;;;;;3.73;1.17;;;13.40;99.90;;;;;;5449648;26;20235;-76
2024/04/15 10:52:51;;;;;;;8.63;2.00;;;13.60;99.90;;;;;;5449912;26;20223;-76
2024/04/15 10:55:40;;;;;;;4.47;1.60;;;13.90;99.90;;;;;;5422464;26;20261;-76
2024/04/15 10:58:28;;;;;;;4.93;1.50;;;14.00;99.90;;;;;;5424972;26;20212;-76
2024/04/15 11:01:16;;;;;;;5.43;1.93;;;13.90;99.90;;;;;;5424920;26;20653;-76
2024/04/15 11:04:06;;;;;;;5.43;1.40;;;14.30;99.90;;;;;;5449593;26;20579;-76
2024/04/15 11:06:54;;;;;;;8.00;1.40;;;14.00;99.90;;;;;;5425093;26;20738;-76
2024/04/15 11:09:42;;;;;;;4.20;1.57;;;13.90;99.90;;;;;;5449876;26;20264;-76
2024/04/15 11:12:29;;;;;;;5.13;1.70;;;14.80;99.90;;;;;;5425394;26;20260;-76
2024/04/15 11:15:18;;;;;;;5.07;1.30;;;15.40;99.90;;;;;;5450869;26;20235;-76
2024/04/15 11:18:14;;;;;;;3.53;1.30;;;15.50;99.90;;;;;;5450998;26;20311;-76
2024/04/15 11:21:02;;;;;;;5.43;1.50;;;15.90;99.90;;;;;;5448929;26;20290;-76
2024/04/15 11:23:50;;;;;;;5.80;1.40;;;16.70;99.90;;;;;;5449821;26;20218;-76
2024/04/15 11:26:39;;;;;;;3.40;1.40;;;16.50;99.90;;;;;;5424641;26;20271;-76
2024/04/15 11:29:27;;;;;;;3.37;1.10;;;16.70;99.90;;;;;;5424555;26;20224;-77
2024/04/15 11:32:15;;;;;;;5.53;1.23;;;17.50;99.90;;;;;;5449202;26;20279;-76
2024/04/15 11:35:03;;;;;;;5.10;1.30;;;18.40;99.90;;;;;;5449469;26;20249;-77
2024/04/15 11:37:58;;;;;;;3.10;1.23;;;19.60;99.90;;;;;;5424346;26;20434;-76
2024/04/15 11:40:46;;;;;;;3.87;1.43;;;20.30;98.00;;;;;;5450095;26;20741;-77
2024/04/15 11:43:36;;;;;;;4.93;1.50;;;19.60;97.00;;;;;;5449450;26;20498;-76
2024/04/15 11:46:24;;;;;;;3.40;1.20;;;18.50;98.70;;;;;;5449536;26;20219;-76
2024/04/15 11:49:12;;;;;;;5.43;1.10;;;18.00;98.40;;;;;;5449403;26;20250;-76
2024/04/15 11:52:00;;;;;;;4.37;1.20;;;17.20;98.20;;;;;;5449375;26;20675;-76
2024/04/15 11:54:48;;;;;;;3.10;1.00;;;17.00;98.40;;;;;;5422681;26;20251;-76
2024/04/15 11:57:35;;;;;;;2.57;1.20;;;16.00;99.70;;;;;;5449950;26;20214;-76
2024/04/15 12:00:23;;;;;;;5.20;1.30;;;17.20;98.50;;;;;;5449452;26;20253;-76
2024/04/15 12:03:10;;;;;;;3.97;1.23;;;18.50;97.90;;;;;;5423703;26;20605;-76
2024/04/15 12:05:58;;;;;;;3.37;0.93;;;19.00;96.00;;;;;;5450823;26;20287;-76
2024/04/15 12:08:46;;;;;;;4.43;1.30;;;19.40;93.90;;;;;;5448969;26;20316;-76
2024/04/15 12:11:33;;;;;;;2.77;1.20;;;18.90;94.50;;;;;;5449277;26;20328;-76
2024/04/15 12:14:21;;;;;;;3.43;1.20;;;17.70;95.60;;;;;;5450032;26;20699;-76
2024/04/15 12:17:08;;;;;;;5.50;1.47;;;16.90;97.40;;;;;;5448599;26;20226;-76
2024/04/15 12:19:56;;;;;;;7.43;1.50;;;16.90;98.30;;;;;;5449484;26;20223;-76
2024/04/15 12:22:44;;;;;;;3.73;1.40;;;16.30;98.20;;;;;;5422678;26;20287;-76
2024/04/15 12:25:31;;;;;;;6.47;1.77;;;15.60;99.90;;;;;;5423398;26;20263;-76
2024/04/15 12:28:19;;;;;;;4.57;1.43;;;14.90;99.90;;;;;;5447789;26;20275;-76
2024/04/15 12:31:07;;;;;;;4.10;1.50;;;14.10;99.90;;;;;;5425027;26;20771;-76
2024/04/15 12:33:55;;;;;;;4.30;1.60;;;13.80;99.90;;;;;;5426155;26;20556;-77
2024/04/15 12:36:43;;;;;;;3.33;1.43;;;14.00;99.90;;;;;;5452461;26;20741;-76
2024/04/15 12:39:31;;;;;;;3.83;1.60;;;13.90;99.90;;;;;;5425080;26;20211;-77
2024/04/15 12:42:19;;;;;;;4.33;1.40;;;13.90;99.90;;;;;;5429055;26;20562;-77
2024/04/15 12:45:06;;;;;;;3.70;1.60;;;14.00;99.90;;;;;;5426360;26;20215;-77
2024/04/15 12:47:54;;;;;;;5.53;1.30;;;14.20;99.90;;;;;;5425869;26;20593;-77
2024/04/15 12:50:46;;;;;;;6.10;1.80;;;14.00;99.90;;;;;;5426625;26;20227;-77
2024/04/15 12:53:33;;;;;;;3.43;1.37;;;14.10;99.90;;;;;;5453046;26;20703;-76
2024/04/15 12:56:21;;;;;;;5.43;1.77;;;13.90;99.90;;;;;;5452960;26;20215;-77
2024/04/15 12:59:09;;;;;;;5.10;1.50;;;14.00;99.90;;;;;;5452520;26;20319;-76
2024/04/15 13:01:57;;;;;;;6.87;1.73;;;14.20;99.90;;;;;;5425670;26;20265;-77
2024/04/15 13:04:55;;;;;;;4.50;1.50;;;14.70;99.90;;;;;;5451917;26;20223;-76
2024/04/15 13:07:43;;;;;;;3.70;1.50;;;14.90;99.90;;;;;;5451360;26;20279;-76
2024/04/15 13:10:31;;;;;;;3.63;1.10;;;14.50;99.90;;;;;;5453542;26;20284;-76
2024/04/15 13:13:18;;;;;;;6.40;1.50;;;14.20;99.90;;;;;;5424931;26;20219;-76
2024/04/15 13:16:06;;;;;;;4.43;1.30;;;14.10;99.90;;;;;;5425674;26;20278;-76
2024/04/15 13:18:55;;;;;;;3.73;1.40;;;14.10;99.90;;;;;;5452180;26;22613;-76
2024/04/15 13:21:42;;;;;;;5.03;1.60;;;14.30;99.90;;;;;;5451153;26;20249;-76
2024/04/15 13:24:30;;;;;;;5.57;1.60;;;14.50;99.90;;;;;;5452905;26;20231;-76
2024/04/15 13:27:17;;;;;;;4.93;1.20;;;14.60;99.90;;;;;;5451046;26;20266;-76
2024/04/15 13:30:06;;;;;;;4.50;1.50;;;14.60;99.90;;;;;;5451627;26;20227;-76
2024/04/15 13:32:53;;;;;;;5.70;1.27;;;14.90;99.90;;;;;;5450996;26;20275;-76
2024/04/15 13:35:41;;;;;;;4.60;1.47;;;15.00;99.90;;;;;;5452402;26;20227;-76
2024/04/15 13:38:31;;;;;;;4.57;1.30;;;14.60;99.90;;;;;;5450377;26;20227;-76
2024/04/15 13:41:18;;;;;;;3.73;1.30;;;14.30;99.90;;;;;;5449721;26;20223;-77
2024/04/15 13:44:06;;;;;;;5.67;1.40;;;14.40;99.90;;;;;;5450617;26;20258;-77
2024/04/15 13:46:54;;;;;;;3.67;1.40;;;14.20;99.90;;;;;;5452229;26;20264;-76
2024/04/15 13:49:41;;;;;;;5.90;1.30;;;13.90;99.90;;;;;;5450828;26;20227;-76
2024/04/15 13:52:29;;;;;;;5.17;1.30;;;14.00;99.90;;;;;;5451868;26;20218;-76
2024/04/15 13:55:16;;;;;;;4.17;1.40;;;14.10;99.90;;;;;;5450811;26;20714;-76
2024/04/15 13:58:04;;;;;;;5.93;1.43;;;14.20;99.90;;;;;;5451269;26;20217;-76
2024/04/15 14:00:54;;;;;;;3.17;1.33;;;14.10;99.90;;;;;;5425826;26;20804;-76
2024/04/15 14:03:41;;;;;;;4.10;1.40;;;13.90;99.90;;;;;;5425671;26;20216;-77
2024/04/15 14:06:29;;;;;;;3.43;1.17;;;13.60;99.90;;;;;;5450663;26;20285;-76
2024/04/15 14:09:19;;;;;;;5.00;1.37;;;13.70;99.90;;;;;;5450493;26;20229;-76
2024/04/15 14:12:09;;;;;;;3.10;1.40;;;13.70;99.90;;;;;;5425933;26;20214;-77
2024/04/15 14:18:27;;;;;;;5.03;1.50;;;13.90;99.90;;;;;;5447877;26;20342;-75
2024/04/15 14:24:25;;;;;;;6.33;1.30;;;13.60;99.90;;;;;;5450278;26;20262;-75
2024/04/15 14:27:13;;;;;;;4.00;1.37;;;13.70;99.90;;;;;;5424523;26;20216;-74
2024/04/15 14:30:01;;;;;;;5.90;1.30;;;13.70;99.90;;;;;;5450235;26;20391;-74
2024/04/15 14:32:49;;;;;;;4.07;1.30;;;13.70;99.90;;;;;;5449743;26;20323;-75
2024/04/15 14:36:02;;;;;;;11.57;2.43;;;13.70;99.90;;;;;;5449868;26;20738;-74
2024/04/15 14:38:57;;;;;;;2.90;1.30;;;13.80;99.90;;;;;;5449635;26;20214;-78
2024/04/15 14:42:08;;;;;;;4.10;1.40;;;13.90;99.90;;;;;;5449896;26;20703;-74
2024/04/15 14:44:57;;;;;;;2.87;1.20;;;14.10;99.90;;;;;;5449891;26;20261;-80
2024/04/15 14:47:47;;;;;;;3.97;1.30;;;15.10;99.90;;;;;;5424555;26;20257;-79
2024/04/15 14:50:54;;;;;;;3.80;1.50;;;14.90;99.90;;;;;;5450091;26;20305;-81
2024/04/15 14:53:46;;;;;;;9.30;1.40;;;15.20;99.90;;;;;;5424554;26;20257;-80
2024/04/15 14:56:52;;;;;;;4.83;1.50;;;15.00;99.90;;;;;;5425283;26;20216;-81